createdAt,value
2023-03-26T09:17:58.134Z,142461.09
2023-03-26T09:23:26.342Z,142420.28
2023-03-26T09:28:47.650Z,142307.72
2023-03-26T09:33:59.436Z,142266.94
2023-03-26T09:39:11.362Z,142208.84
2023-03-26T09:44:33.421Z,142315.13
2023-03-26T09:49:44.088Z,142311.44
2023-03-26T09:54:57.344Z,142389.38
2023-03-26T10:00:11.189Z,142440.09
2023-03-26T10:05:46.916Z,142448.75
2023-03-26T10:10:53.854Z,142449.97
2023-03-26T10:16:15.458Z,142399.25
2023-03-26T10:21:33.449Z,142421.53
2023-03-26T10:27:09.056Z,142479.66
2023-03-26T10:32:23.951Z,142477.19
2023-03-26T10:37:37.091Z,142516.78
2023-03-26T10:43:02.622Z,142584.84
2023-03-26T10:48:23.111Z,142640.56
2023-03-26T10:53:32.371Z,142579.91
2023-03-26T10:58:48.576Z,142638.06
2023-03-26T11:03:54.827Z,142696.28
2023-03-26T11:09:04.476Z,142730.94
2023-03-26T11:14:16.850Z,142678.91
2023-03-26T11:19:28.200Z,142718.56
2023-03-26T11:24:46.904Z,142676.44
2023-03-26T11:29:57.760Z,142752.00
2023-03-26T11:35:05.671Z,142913.09
2023-03-26T11:40:14.541Z,143007.28
2023-03-26T11:45:24.211Z,142971.34
2023-03-26T11:50:28.901Z,143090.38
2023-03-26T11:55:32.845Z,143115.19
2023-03-26T12:00:40.485Z,143163.53
2023-03-26T12:05:49.226Z,143090.38
2023-03-26T12:11:19.207Z,143101.53
2023-03-26T12:16:32.755Z,143097.81
2023-03-26T12:21:47.362Z,143188.34
2023-03-26T12:26:57.400Z,143199.53
2023-03-26T12:32:07.200Z,143378.25
2023-03-26T12:37:32.803Z,143275.22
2023-03-26T12:44:53.798Z,143113.94
2023-03-26T12:48:07.176Z,143244.19
2023-03-26T12:53:25.248Z,143223.13
2023-03-26T12:58:43.544Z,143189.59
2023-03-26T13:03:58.976Z,143238.00
2023-03-26T13:09:15.736Z,143209.47
2023-03-26T13:14:32.188Z,143210.69
2023-03-26T13:19:41.053Z,143225.59
2023-03-26T13:24:51.195Z,143206.97
2023-03-26T13:29:57.917Z,143261.59
2023-03-26T13:35:12.579Z,143216.88
2023-03-26T13:40:22.431Z,143082.94
2023-03-26T13:45:34.128Z,142905.63
2023-03-26T13:50:44.861Z,142993.63
2023-03-26T13:55:50.364Z,143049.44
2023-03-26T14:00:59.383Z,143055.66
2023-03-26T14:06:07.772Z,143086.66
2023-03-26T14:11:13.909Z,143110.25
2023-03-26T14:16:19.435Z,143120.16
2023-03-26T14:21:50.055Z,143133.75
2023-03-26T14:27:05.525Z,143107.72
2023-03-26T14:32:24.104Z,143127.56
2023-03-26T14:37:35.751Z,143158.59
2023-03-26T14:42:43.480Z,143115.19
2023-03-26T14:47:49.971Z,143152.38
2023-03-26T14:53:01.400Z,143084.19
2023-03-26T14:58:22.106Z,143074.25
2023-03-26T15:03:48.750Z,142967.59
2023-03-26T15:09:12.926Z,142875.88
2023-03-26T15:14:34.329Z,142754.50
2023-03-26T15:19:56.350Z,142755.72
2023-03-26T15:25:18.897Z,142721.06
2023-03-26T15:30:37.396Z,142681.38
2023-03-26T15:36:03.960Z,142724.75
2023-03-26T15:41:17.587Z,142643.03
2023-03-26T15:46:27.459Z,142557.59
2023-03-26T15:51:47.313Z,142527.94
2023-03-26T15:57:00.244Z,142493.31
2023-03-26T16:02:18.593Z,142422.75
2023-03-26T16:07:55.796Z,142355.97
2023-03-26T16:13:19.784Z,142331.22
2023-03-26T16:18:33.986Z,142284.22
2023-03-26T16:24:11.455Z,142292.91
2023-03-26T16:29:27.065Z,142285.47
2023-03-26T16:34:40.431Z,142306.50
2023-03-26T16:39:44.777Z,142302.78
2023-03-26T16:44:52.716Z,142372.03
2023-03-26T16:50:08.901Z,142415.34
2023-03-26T16:55:31.173Z,142400.47
2023-03-26T17:00:49.071Z,142353.50
2023-03-26T17:06:07.635Z,142306.50
2023-03-26T17:11:21.187Z,142181.66
2023-03-26T17:16:43.363Z,142087.69
2023-03-26T17:21:54.064Z,142037.03
2023-03-26T17:27:02.824Z,141993.81
2023-03-26T17:32:09.177Z,141944.44
2023-03-26T17:37:29.230Z,141933.34
2023-03-26T17:42:37.622Z,141866.66
2023-03-26T17:47:43.546Z,141853.09
2023-03-26T17:52:52.717Z,141835.78
2023-03-26T17:57:59.563Z,141793.84
2023-03-26T18:03:06.202Z,141807.41
2023-03-26T18:08:33.264Z,141803.69
2023-03-26T18:13:51.693Z,141790.16
2023-03-26T18:18:59.024Z,141743.22
2023-03-26T18:24:03.123Z,141724.72
2023-03-26T18:29:12.478Z,141666.72
2023-03-26T18:34:21.017Z,141601.38
2023-03-26T18:39:27.069Z,141603.81
2023-03-26T18:44:31.043Z,141577.94
2023-03-26T18:49:36.659Z,141575.47
2023-03-26T18:54:40.095Z,141577.94
2023-03-26T18:59:45.383Z,141555.72
2023-03-26T19:04:54.445Z,141517.53
2023-03-26T19:09:58.995Z,141502.69
2023-03-26T19:15:07.738Z,141507.66
2023-03-26T19:20:17.504Z,141497.81
2023-03-26T19:25:22.716Z,141485.53
2023-03-26T19:30:33.087Z,141463.31
2023-03-26T19:35:42.258Z,141462.09
2023-03-26T19:40:46.295Z,141455.94
2023-03-26T19:46:00.369Z,141468.25
2023-03-26T19:51:20.192Z,141406.63
2023-03-26T19:56:24.044Z,141421.38
2023-03-26T20:01:28.387Z,141399.25
2023-03-26T20:06:42.297Z,141374.59
2023-03-26T20:11:47.240Z,141356.09
2023-03-26T20:16:50.815Z,141324.06
2023-03-26T20:21:56.131Z,141266.16
2023-03-26T20:27:02.148Z,141256.31
2023-03-26T20:32:09.639Z,141237.84
2023-03-26T20:37:15.417Z,141245.22
2023-03-26T20:42:19.111Z,141242.75
2023-03-26T20:47:23.733Z,141216.91
2023-03-26T20:52:29.468Z,141232.91
2023-03-26T20:57:36.421Z,141231.69
2023-03-26T21:02:41.937Z,141263.72
2023-03-26T21:07:48.702Z,141211.97
2023-03-26T21:12:56.667Z,141218.13
2023-03-26T21:18:01.002Z,141194.72
2023-03-26T21:23:08.942Z,141166.41
2023-03-26T21:28:19.441Z,141183.66
2023-03-26T21:33:23.142Z,141170.13
2023-03-26T21:38:32.292Z,141175.06
